createdAt,value
2023-03-29T00:00:10.229Z,10.63
2023-03-29T00:01:35.708Z,10.10
2023-03-29T00:02:58.362Z,8.50
2023-03-29T00:04:19.542Z,11.77
2023-03-29T00:05:40.139Z,9.98
2023-03-29T00:07:00.931Z,8.23
2023-03-29T00:08:21.614Z,12.38
2023-03-29T00:09:42.416Z,6.50
2023-03-29T00:11:03.363Z,12.23
2023-03-29T00:12:24.059Z,12.05
2023-03-29T00:13:44.518Z,11.37
2023-03-29T00:15:06.646Z,8.00
2023-03-29T00:16:27.503Z,13.02
2023-03-29T00:17:49.014Z,7.50
2023-03-29T00:19:10.905Z,10.70
2023-03-29T00:20:31.523Z,10.48
2023-03-29T00:21:52.323Z,11.88
2023-03-29T00:23:13.022Z,8.52
2023-03-29T00:24:33.608Z,10.77
2023-03-29T00:25:54.689Z,13.60
2023-03-29T00:27:15.478Z,9.65
2023-03-29T00:28:36.210Z,10.90
2023-03-29T00:29:56.950Z,15.45
2023-03-29T00:31:18.420Z,14.07
2023-03-29T00:32:39.485Z,14.05
2023-03-29T00:34:00.092Z,11.10
2023-03-29T00:35:22.092Z,11.37
2023-03-29T00:36:42.866Z,12.43
2023-03-29T00:38:03.467Z,13.38
2023-03-29T00:39:25.143Z,11.03
2023-03-29T00:40:46.937Z,8.80
2023-03-29T00:42:11.497Z,11.18
2023-03-29T00:43:47.320Z,11.60
2023-03-29T00:45:17.563Z,13.98
2023-03-29T00:46:38.188Z,12.23
2023-03-29T00:48:00.603Z,8.98
2023-03-29T00:49:21.566Z,13.07
2023-03-29T00:50:45.813Z,14.55
2023-03-29T00:52:06.456Z,11.90
2023-03-29T00:53:29.446Z,9.57
2023-03-29T00:54:53.261Z,12.25
2023-03-29T00:56:18.118Z,13.15
2023-03-29T00:57:40.090Z,12.20
2023-03-29T00:59:03.332Z,15.80
2023-03-29T01:00:28.467Z,11.93
2023-03-29T01:01:51.509Z,16.80
2023-03-29T01:03:13.964Z,10.27
2023-03-29T01:04:37.432Z,11.13
2023-03-29T01:06:02.305Z,14.18
2023-03-29T01:07:25.709Z,12.25
2023-03-29T01:08:51.269Z,10.18
2023-03-29T01:10:15.821Z,9.98
2023-03-29T01:11:39.901Z,15.40
2023-03-29T01:13:03.336Z,14.88
2023-03-29T01:14:28.393Z,10.70
2023-03-29T01:15:49.335Z,14.40
2023-03-29T01:17:10.272Z,10.32
2023-03-29T01:18:30.976Z,11.48
2023-03-29T01:19:56.105Z,15.87
2023-03-29T01:21:22.035Z,13.77
2023-03-29T01:22:55.542Z,9.43
2023-03-29T01:24:34.872Z,12.05
2023-03-29T01:25:59.932Z,14.20
2023-03-29T01:27:34.526Z,14.18
2023-03-29T01:28:59.267Z,17.10
2023-03-29T01:30:23.121Z,13.45
2023-03-29T01:31:47.121Z,12.07
2023-03-29T01:33:11.928Z,12.20
2023-03-29T01:34:36.823Z,9.10
2023-03-29T01:36:02.703Z,11.57
2023-03-29T01:37:25.936Z,13.15
2023-03-29T01:38:50.664Z,11.18
2023-03-29T01:40:12.260Z,10.27
2023-03-29T01:41:38.408Z,12.02
2023-03-29T01:43:06.971Z,10.82
2023-03-29T01:44:31.621Z,10.57
2023-03-29T01:45:58.361Z,13.85
2023-03-29T01:47:24.712Z,14.40
2023-03-29T01:48:49.583Z,15.20
2023-03-29T01:50:13.820Z,11.48
2023-03-29T01:51:37.745Z,11.70
2023-03-29T01:53:00.684Z,12.18
2023-03-29T01:54:25.521Z,14.18
2023-03-29T01:55:50.039Z,12.15
2023-03-29T01:57:11.195Z,14.02
2023-03-29T01:58:35.761Z,12.48
2023-03-29T01:59:57.749Z,13.10
2023-03-29T02:01:21.497Z,11.57
2023-03-29T02:02:42.801Z,14.32
2023-03-29T02:04:05.258Z,14.55
2023-03-29T02:05:27.249Z,12.63
2023-03-29T02:06:48.984Z,16.63
2023-03-29T02:08:14.285Z,16.00
2023-03-29T02:09:36.826Z,12.40
2023-03-29T02:10:58.014Z,12.15
2023-03-29T02:12:19.736Z,9.63
2023-03-29T02:13:42.056Z,12.07
2023-03-29T02:15:03.103Z,12.48
2023-03-29T02:16:23.801Z,13.27
2023-03-29T02:17:44.810Z,8.73
2023-03-29T02:19:05.846Z,16.37
2023-03-29T02:20:28.429Z,14.32
2023-03-29T02:21:52.992Z,16.42
2023-03-29T02:23:16.159Z,13.10
2023-03-29T02:24:37.450Z,16.70
2023-03-29T02:25:58.059Z,12.50
2023-03-29T02:27:18.577Z,12.73
2023-03-29T02:28:39.227Z,12.90
2023-03-29T02:30:01.526Z,14.68
2023-03-29T02:31:25.318Z,14.38
2023-03-29T02:32:48.861Z,13.93
2023-03-29T02:34:14.517Z,13.90
2023-03-29T02:35:37.732Z,14.82
2023-03-29T02:37:00.089Z,15.48
2023-03-29T02:38:21.737Z,14.75
2023-03-29T02:39:42.906Z,17.75
2023-03-29T02:41:04.487Z,15.70
2023-03-29T02:42:25.789Z,15.07
2023-03-29T02:43:47.253Z,11.20
2023-03-29T02:45:11.555Z,11.35
2023-03-29T02:46:32.208Z,11.75
2023-03-29T02:47:55.555Z,12.35
2023-03-29T02:49:16.126Z,14.88
2023-03-29T02:50:38.496Z,16.30
2023-03-29T02:52:05.559Z,16.50
2023-03-29T02:53:29.922Z,14.45
2023-03-29T02:54:53.107Z,14.88
2023-03-29T02:56:14.831Z,15.43
2023-03-29T02:57:35.188Z,13.90
2023-03-29T02:58:55.746Z,12.95
2023-03-29T03:00:18.903Z,14.03
2023-03-29T03:01:39.826Z,16.52
2023-03-29T03:03:02.051Z,19.25
2023-03-29T03:04:22.805Z,20.17
2023-03-29T03:05:43.620Z,15.93
2023-03-29T03:07:04.525Z,15.10
2023-03-29T03:08:25.142Z,14.25
2023-03-29T03:09:45.463Z,12.68
2023-03-29T03:11:06.517Z,11.95
2023-03-29T03:12:27.040Z,13.23
2023-03-29T03:13:47.654Z,13.25
2023-03-29T03:15:08.905Z,13.80
2023-03-29T03:16:30.891Z,13.23
2023-03-29T03:17:51.706Z,12.73
2023-03-29T03:19:12.640Z,17.80
2023-03-29T03:20:33.501Z,14.55
2023-03-29T03:21:54.334Z,15.10
2023-03-29T03:23:14.771Z,12.80
2023-03-29T03:24:35.567Z,16.08
2023-03-29T03:25:56.676Z,17.70
2023-03-29T03:27:17.364Z,18.80
2023-03-29T03:28:38.725Z,17.20
2023-03-29T03:29:59.302Z,16.98
2023-03-29T03:31:19.964Z,12.40
2023-03-29T03:32:41.954Z,14.40
2023-03-29T03:34:02.641Z,13.93
2023-03-29T03:35:23.518Z,16.65
2023-03-29T03:36:44.022Z,15.93
2023-03-29T03:38:04.929Z,14.55
2023-03-29T03:39:25.938Z,14.70
2023-03-29T03:40:53.565Z,16.95
2023-03-29T03:42:14.090Z,14.82
2023-03-29T03:43:34.830Z,14.32
2023-03-29T03:44:55.692Z,12.63
2023-03-29T03:46:16.847Z,13.88
2023-03-29T03:47:38.258Z,17.30
2023-03-29T03:49:00.214Z,14.48
2023-03-29T03:50:20.872Z,12.18
2023-03-29T03:51:41.981Z,15.15
2023-03-29T03:53:02.787Z,13.25
2023-03-29T03:54:23.649Z,17.57
2023-03-29T03:55:47.942Z,13.18
2023-03-29T03:57:08.793Z,16.88
2023-03-29T03:58:29.126Z,13.73
2023-03-29T03:59:49.844Z,15.63
2023-03-29T04:01:10.836Z,17.75
2023-03-29T04:02:31.274Z,17.52
2023-03-29T04:03:51.891Z,14.55
2023-03-29T04:05:14.466Z,15.43
2023-03-29T04:06:35.312Z,13.57
2023-03-29T04:07:56.122Z,12.63
2023-03-29T04:09:16.862Z,16.27
2023-03-29T04:10:37.562Z,13.27
2023-03-29T04:11:58.967Z,13.70
2023-03-29T04:14:40.686Z,16.85
2023-03-29T04:16:01.834Z,18.58
2023-03-29T04:17:22.826Z,12.02
2023-03-29T04:18:43.596Z,15.40
2023-03-29T04:20:04.916Z,12.98
2023-03-29T04:22:47.039Z,11.48
2023-03-29T04:24:08.189Z,15.48
2023-03-29T04:25:28.495Z,13.43
2023-03-29T04:26:49.023Z,14.55
2023-03-29T04:28:10.066Z,13.95
2023-03-29T04:29:30.983Z,15.60
2023-03-29T04:30:51.839Z,16.17
2023-03-29T04:32:12.211Z,13.68
2023-03-29T04:33:32.591Z,14.02
2023-03-29T04:34:53.365Z,16.43
2023-03-29T04:36:14.076Z,14.43
2023-03-29T04:37:36.501Z,17.88
2023-03-29T04:38:57.198Z,14.73
2023-03-29T04:40:17.896Z,11.67
2023-03-29T04:41:38.662Z,14.77
2023-03-29T04:42:59.270Z,17.83
2023-03-29T04:44:20.109Z,18.20
2023-03-29T04:45:40.684Z,20.33
2023-03-29T04:47:01.558Z,19.52
2023-03-29T04:48:22.325Z,19.20
2023-03-29T04:49:43.018Z,16.02
2023-03-29T04:51:04.245Z,18.50
2023-03-29T04:52:25.124Z,17.55
2023-03-29T04:53:46.949Z,16.55
2023-03-29T04:55:08.649Z,15.32
2023-03-29T04:56:29.256Z,14.32
2023-03-29T04:57:49.703Z,15.90
2023-03-29T04:59:10.498Z,18.58
2023-03-29T05:00:31.642Z,14.45
2023-03-29T05:01:52.557Z,19.67
2023-03-29T05:03:13.438Z,15.40
2023-03-29T05:04:34.152Z,17.85
2023-03-29T05:06:02.579Z,17.03
2023-03-29T05:07:23.394Z,14.93
2023-03-29T05:08:44.038Z,13.13
2023-03-29T05:10:07.338Z,14.68
2023-03-29T05:11:27.971Z,16.63
2023-03-29T05:12:48.813Z,16.55
2023-03-29T05:14:09.295Z,11.88
2023-03-29T05:15:30.395Z,13.82
2023-03-29T05:16:50.789Z,14.65
2023-03-29T05:18:11.604Z,13.82
2023-03-29T05:19:32.341Z,15.10
2023-03-29T05:20:55.588Z,16.00
2023-03-29T05:22:16.183Z,21.20
2023-03-29T05:23:36.654Z,14.87
2023-03-29T05:24:57.692Z,17.20
2023-03-29T05:26:19.783Z,14.88
2023-03-29T05:27:40.235Z,17.27
2023-03-29T05:29:00.841Z,15.70
2023-03-29T05:30:21.406Z,15.55
2023-03-29T05:31:42.245Z,15.43
2023-03-29T05:33:03.509Z,14.57
2023-03-29T05:34:23.953Z,21.27
2023-03-29T05:35:44.534Z,14.73
2023-03-29T05:37:05.584Z,17.20
2023-03-29T05:38:26.372Z,17.98
2023-03-29T05:39:47.099Z,17.83
2023-03-29T05:41:08.206Z,22.90
2023-03-29T05:42:30.004Z,16.23
2023-03-29T05:43:50.489Z,16.85
2023-03-29T05:45:11.604Z,18.38
2023-03-29T05:46:31.976Z,16.42
2023-03-29T05:47:52.437Z,19.70
2023-03-29T05:49:12.874Z,22.65
2023-03-29T05:50:33.348Z,17.08
2023-03-29T05:51:54.157Z,18.70
2023-03-29T05:53:14.601Z,15.65
2023-03-29T05:54:35.282Z,24.33
2023-03-29T05:55:56.210Z,23.15
2023-03-29T05:57:17.158Z,20.92
2023-03-29T05:58:39.165Z,17.45
2023-03-29T05:59:59.739Z,18.88
2023-03-29T06:01:20.637Z,16.70
2023-03-29T06:02:41.426Z,21.65
2023-03-29T06:04:02.633Z,18.92
2023-03-29T06:05:23.494Z,20.70
2023-03-29T06:06:44.560Z,21.33
2023-03-29T06:08:05.570Z,19.35
2023-03-29T06:09:26.317Z,16.52
2023-03-29T06:10:47.036Z,20.48
2023-03-29T06:12:08.561Z,17.75
2023-03-29T06:13:29.517Z,26.05
2023-03-29T06:14:51.450Z,17.83
2023-03-29T06:16:12.244Z,21.75
2023-03-29T06:17:32.790Z,17.50
2023-03-29T06:18:53.550Z,18.25
2023-03-29T06:20:14.712Z,19.23
2023-03-29T06:21:36.256Z,18.65
2023-03-29T06:22:56.418Z,21.65
2023-03-29T06:24:17.103Z,25.95
2023-03-29T06:25:38.104Z,20.83
2023-03-29T06:26:58.551Z,15.38
2023-03-29T06:28:19.506Z,19.95
2023-03-29T06:29:40.603Z,19.67
2023-03-29T06:31:04.461Z,17.20
2023-03-29T06:32:25.739Z,27.08
2023-03-29T06:33:46.339Z,22.67
2023-03-29T06:35:08.080Z,17.65
2023-03-29T06:36:28.888Z,21.30
2023-03-29T06:37:49.572Z,23.90
2023-03-29T06:39:10.559Z,20.10
2023-03-29T06:40:31.423Z,28.15
2023-03-29T06:41:51.951Z,23.92
2023-03-29T06:43:12.599Z,26.00
2023-03-29T06:44:33.888Z,26.63
2023-03-29T06:45:54.860Z,22.48
2023-03-29T06:48:37.547Z,28.73
2023-03-29T06:49:58.326Z,25.58
2023-03-29T06:51:21.120Z,23.87
2023-03-29T06:52:43.119Z,32.25
2023-03-29T06:54:03.793Z,25.73
2023-03-29T06:55:24.770Z,27.30
2023-03-29T06:56:45.477Z,27.85
2023-03-29T06:58:05.774Z,27.42
2023-03-29T06:59:26.950Z,33.88
2023-03-29T07:00:47.698Z,33.30
2023-03-29T07:02:09.377Z,31.83
2023-03-29T07:03:31.250Z,26.48
2023-03-29T07:04:51.865Z,27.92
2023-03-29T07:06:12.909Z,27.48
2023-03-29T07:07:33.384Z,34.88
2023-03-29T07:08:54.048Z,27.90
2023-03-29T07:10:14.895Z,32.38
2023-03-29T07:11:35.476Z,32.28
2023-03-29T07:12:56.071Z,30.63
2023-03-29T07:14:17.064Z,27.88
2023-03-29T07:15:37.618Z,24.73
2023-03-29T07:16:58.569Z,25.57
2023-03-29T07:18:19.245Z,25.90
2023-03-29T07:19:41.230Z,29.63
2023-03-29T07:21:02.084Z,26.08
2023-03-29T07:22:23.021Z,28.40
2023-03-29T07:23:43.863Z,32.58
2023-03-29T07:25:05.233Z,34.40
2023-03-29T07:26:28.828Z,27.35
2023-03-29T07:27:51.271Z,30.17
2023-03-29T07:29:12.067Z,32.42
2023-03-29T07:30:33.191Z,28.08
2023-03-29T07:31:53.655Z,28.02
2023-03-29T07:33:14.416Z,28.27
2023-03-29T07:34:34.930Z,28.77
2023-03-29T07:35:56.950Z,31.08
2023-03-29T07:37:17.728Z,25.80
2023-03-29T07:38:38.297Z,37.22
2023-03-29T07:39:58.894Z,25.58
2023-03-29T07:41:19.502Z,25.67
2023-03-29T07:42:40.201Z,21.80
2023-03-29T07:44:02.663Z,24.17
2023-03-29T07:45:28.045Z,33.10
2023-03-29T07:46:48.922Z,26.45
2023-03-29T07:48:09.615Z,29.88
2023-03-29T07:49:30.430Z,25.90
2023-03-29T07:50:50.950Z,28.10
2023-03-29T07:52:13.072Z,29.92
2023-03-29T07:53:33.297Z,28.75
2023-03-29T07:54:53.959Z,28.17
2023-03-29T07:56:14.752Z,28.48
2023-03-29T07:57:35.912Z,36.83
2023-03-29T07:58:56.283Z,28.30
2023-03-29T08:00:17.705Z,38.35
2023-03-29T08:01:38.144Z,35.13
2023-03-29T08:02:58.861Z,34.42
2023-03-29T08:04:19.499Z,44.33
2023-03-29T08:05:41.729Z,38.35
2023-03-29T08:07:03.030Z,43.20
2023-03-29T08:08:24.988Z,39.38
2023-03-29T08:09:45.839Z,42.03
2023-03-29T08:11:06.783Z,44.67
2023-03-29T08:12:27.595Z,39.70
2023-03-29T08:13:48.289Z,44.25
2023-03-29T08:15:09.461Z,40.10
2023-03-29T08:16:30.262Z,48.40
2023-03-29T08:17:50.869Z,43.05
2023-03-29T08:19:11.696Z,42.72
2023-03-29T08:20:32.259Z,43.47
2023-03-29T08:21:53.060Z,46.03
2023-03-29T08:23:13.526Z,46.95
2023-03-29T08:24:35.367Z,50.38
2023-03-29T08:25:56.113Z,48.20
2023-03-29T08:27:16.607Z,44.83
2023-03-29T08:28:37.356Z,50.65
2023-03-29T08:29:58.033Z,46.70
2023-03-29T08:31:18.512Z,43.90
2023-03-29T08:32:39.033Z,54.25
2023-03-29T08:33:59.325Z,52.42
2023-03-29T08:35:20.162Z,46.17
2023-03-29T08:36:40.702Z,51.47
2023-03-29T08:38:01.301Z,49.75
2023-03-29T08:39:21.735Z,45.42
2023-03-29T08:40:43.660Z,48.53
2023-03-29T08:42:20.417Z,46.13
2023-03-29T08:43:55.545Z,48.72
2023-03-29T08:45:23.148Z,47.30
2023-03-29T08:46:48.832Z,56.78
2023-03-29T08:48:17.106Z,47.83
2023-03-29T08:49:38.725Z,46.42
2023-03-29T08:51:01.872Z,47.38
2023-03-29T08:52:28.235Z,51.17
2023-03-29T08:53:51.685Z,48.25
2023-03-29T08:55:17.945Z,54.90
2023-03-29T08:56:41.041Z,43.63
2023-03-29T08:58:03.328Z,53.50
2023-03-29T08:59:27.938Z,51.70
2023-03-29T09:00:51.318Z,52.05
2023-03-29T09:02:16.834Z,49.45
2023-03-29T09:03:40.959Z,47.33
2023-03-29T09:05:08.884Z,46.58
2023-03-29T09:06:29.423Z,51.45
2023-03-29T09:07:49.992Z,44.47
2023-03-29T09:09:14.849Z,44.50
2023-03-29T09:10:39.630Z,44.40
2023-03-29T09:12:09.308Z,40.90
2023-03-29T09:13:36.318Z,41.92
2023-03-29T09:15:03.751Z,36.15
2023-03-29T09:16:30.121Z,33.40
2023-03-29T09:17:59.818Z,46.60
2023-03-29T09:19:26.431Z,40.08
2023-03-29T09:20:53.510Z,43.97
2023-03-29T09:22:19.356Z,52.47
2023-03-29T09:24:00.997Z,49.05
2023-03-29T09:25:24.292Z,40.22
2023-03-29T09:26:48.072Z,46.17
2023-03-29T09:28:14.516Z,46.88
2023-03-29T09:29:47.645Z,45.65
2023-03-29T09:31:13.607Z,53.63
2023-03-29T09:32:38.818Z,50.17
2023-03-29T09:34:01.582Z,52.78
2023-03-29T09:35:24.447Z,50.03
2023-03-29T09:36:51.437Z,46.88
2023-03-29T09:38:13.169Z,45.80
2023-03-29T09:39:33.889Z,49.33
2023-03-29T09:40:55.929Z,48.75
2023-03-29T09:42:17.393Z,44.40
2023-03-29T09:43:41.846Z,42.15
2023-03-29T09:45:04.664Z,51.00
2023-03-29T09:46:29.046Z,48.35
2023-03-29T09:47:52.824Z,42.13
2023-03-29T09:49:17.609Z,47.13
2023-03-29T09:50:40.621Z,43.28
2023-03-29T09:52:04.139Z,45.05
2023-03-29T09:53:28.050Z,39.95
2023-03-29T09:54:48.830Z,39.03
2023-03-29T09:56:09.409Z,42.05
2023-03-29T09:57:30.953Z,40.97
2023-03-29T10:00:14.617Z,40.85
2023-03-29T10:01:37.036Z,42.20
2023-03-29T10:02:58.563Z,40.70
2023-03-29T10:05:39.678Z,36.97
2023-03-29T10:07:00.321Z,38.33
2023-03-29T10:08:25.386Z,39.05
2023-03-29T10:09:46.767Z,38.17
2023-03-29T10:11:12.535Z,41.33
2023-03-29T10:12:33.684Z,47.45
2023-03-29T10:14:00.058Z,46.72
2023-03-29T10:15:29.217Z,52.35
2023-03-29T10:16:56.136Z,45.47
2023-03-29T10:18:16.910Z,45.53
2023-03-29T10:19:37.555Z,43.43
2023-03-29T10:20:58.960Z,40.30
2023-03-29T10:22:22.107Z,38.67
2023-03-29T10:23:43.208Z,39.20
2023-03-29T10:25:04.522Z,34.67
2023-03-29T10:26:30.913Z,34.30
2023-03-29T10:27:51.330Z,33.38
2023-03-29T10:29:13.672Z,38.97
2023-03-29T10:30:35.930Z,39.08
2023-03-29T10:31:56.827Z,36.30
2023-03-29T10:33:20.167Z,40.20
2023-03-29T10:34:40.692Z,40.00
2023-03-29T10:36:04.147Z,41.55
2023-03-29T10:37:28.646Z,42.05
2023-03-29T10:38:50.617Z,37.10
2023-03-29T10:40:19.929Z,34.38
2023-03-29T10:41:40.737Z,34.90
2023-03-29T10:43:11.985Z,36.92
2023-03-29T10:44:35.556Z,34.20
2023-03-29T10:45:57.528Z,40.88
2023-03-29T10:47:20.033Z,44.42
2023-03-29T10:48:45.911Z,40.42
2023-03-29T10:50:08.942Z,37.58
2023-03-29T10:51:29.866Z,36.17
2023-03-29T10:52:50.942Z,34.90
2023-03-29T10:54:15.774Z,34.60
2023-03-29T10:55:40.750Z,38.20
2023-03-29T10:57:04.341Z,36.05
2023-03-29T10:58:32.380Z,31.60
2023-03-29T10:59:59.804Z,37.20
2023-03-29T11:01:25.183Z,38.15
2023-03-29T11:03:01.365Z,43.35
2023-03-29T11:04:27.989Z,39.65
2023-03-29T11:05:52.265Z,36.35
2023-03-29T11:07:25.848Z,34.45
2023-03-29T11:08:57.906Z,38.58
2023-03-29T11:10:32.119Z,39.72
2023-03-29T11:12:15.070Z,33.38
2023-03-29T11:13:42.554Z,33.78
2023-03-29T11:15:13.293Z,36.00
2023-03-29T11:16:38.914Z,38.15
2023-03-29T11:18:07.248Z,31.25
2023-03-29T11:19:50.118Z,32.25
2023-03-29T11:21:19.775Z,33.78
2023-03-29T11:22:45.911Z,30.90
2023-03-29T11:24:26.908Z,29.60
2023-03-29T11:25:53.825Z,32.03
2023-03-29T11:27:22.275Z,32.72
2023-03-29T11:28:48.239Z,31.50
2023-03-29T11:30:15.205Z,52.35
2023-03-29T11:31:43.483Z,41.63
2023-03-29T11:33:09.323Z,39.83
2023-03-29T11:34:35.489Z,40.10
2023-03-29T11:36:04.356Z,35.35
2023-03-29T11:37:30.711Z,35.85
2023-03-29T11:38:58.340Z,37.00
2023-03-29T11:40:31.969Z,33.83
2023-03-29T11:41:55.950Z,40.88
2023-03-29T11:43:19.997Z,35.13
2023-03-29T11:44:41.758Z,39.20
2023-03-29T11:46:09.767Z,39.22
2023-03-29T11:47:32.528Z,38.17
2023-03-29T11:48:58.995Z,38.95
2023-03-29T11:50:25.371Z,40.15
2023-03-29T11:51:48.591Z,34.35
2023-03-29T11:53:11.448Z,35.15
2023-03-29T11:54:36.037Z,40.72
2023-03-29T11:56:00.301Z,37.85
2023-03-29T11:57:23.741Z,41.60
2023-03-29T11:58:50.243Z,34.05
2023-03-29T12:00:13.658Z,38.65
2023-03-29T12:01:39.829Z,41.90
2023-03-29T12:03:03.194Z,43.15
2023-03-29T12:04:27.427Z,37.67
2023-03-29T12:05:59.404Z,41.10
2023-03-29T12:07:23.930Z,38.42
2023-03-29T12:08:48.158Z,48.28
2023-03-29T12:10:13.842Z,43.35
2023-03-29T12:11:38.000Z,40.92
2023-03-29T12:13:01.323Z,41.17
2023-03-29T12:14:27.917Z,43.08
2023-03-29T12:15:52.826Z,41.42
2023-03-29T12:17:16.891Z,37.80
2023-03-29T12:18:40.603Z,37.92
2023-03-29T12:20:10.781Z,31.00
2023-03-29T12:21:32.527Z,38.97
2023-03-29T12:24:17.137Z,32.22
2023-03-29T12:25:42.412Z,29.90
2023-03-29T12:27:19.044Z,28.23
2023-03-29T12:28:56.162Z,34.47
2023-03-29T12:30:23.957Z,34.00
2023-03-29T12:31:50.853Z,34.10
2023-03-29T12:33:36.462Z,32.55
2023-03-29T12:35:05.961Z,30.90
2023-03-29T12:36:54.518Z,31.33
2023-03-29T12:38:19.392Z,29.35
2023-03-29T12:39:39.974Z,27.15
2023-03-29T12:41:15.048Z,30.38
2023-03-29T12:42:44.307Z,25.48
2023-03-29T12:44:05.705Z,26.75
2023-03-29T12:46:52.235Z,23.67
2023-03-29T12:48:17.103Z,30.42
2023-03-29T12:49:38.887Z,23.95
2023-03-29T12:52:27.176Z,22.48
2023-03-29T12:53:49.547Z,22.80
2023-03-29T12:55:22.692Z,21.42
2023-03-29T12:56:56.419Z,23.20
2023-03-29T12:58:36.800Z,29.20
2023-03-29T13:00:11.009Z,22.88
2023-03-29T13:01:33.151Z,20.35
2023-03-29T13:03:01.213Z,22.02
2023-03-29T13:04:36.231Z,17.90
2023-03-29T13:06:00.911Z,22.83
2023-03-29T13:07:43.578Z,17.83
2023-03-29T13:09:20.457Z,18.63
2023-03-29T13:10:42.472Z,19.35
2023-03-29T13:12:18.790Z,18.70
2023-03-29T13:13:40.608Z,22.73
2023-03-29T13:15:03.221Z,19.00
2023-03-29T13:16:30.325Z,22.13
2023-03-29T13:17:58.762Z,24.73
2023-03-29T13:19:30.375Z,29.50
2023-03-29T13:20:56.752Z,23.05
2023-03-29T13:22:26.283Z,24.58
2023-03-29T13:23:54.454Z,25.73
2023-03-29T13:25:28.233Z,27.05
2023-03-29T13:26:54.996Z,31.65
2023-03-29T13:28:20.220Z,28.88
2023-03-29T13:30:06.330Z,33.28
2023-03-29T13:31:33.625Z,30.88
2023-03-29T13:33:10.698Z,27.77
2023-03-29T13:34:37.936Z,29.58
2023-03-29T13:36:02.983Z,34.75
2023-03-29T13:37:31.856Z,27.15
2023-03-29T13:38:59.845Z,26.92
2023-03-29T13:40:32.113Z,23.27
2023-03-29T13:41:54.511Z,29.10
2023-03-29T13:43:22.589Z,26.80
2023-03-29T13:44:44.453Z,26.73
2023-03-29T13:47:58.380Z,23.45
2023-03-29T13:49:25.930Z,25.33
2023-03-29T13:50:55.364Z,19.70
2023-03-29T13:52:19.760Z,21.55
2023-03-29T13:53:44.233Z,19.73
2023-03-29T13:55:08.426Z,24.13
2023-03-29T13:56:32.898Z,18.88
2023-03-29T13:57:56.316Z,23.23
2023-03-29T13:59:19.515Z,19.88
2023-03-29T14:00:44.395Z,22.50
2023-03-29T14:02:05.981Z,23.55
2023-03-29T14:03:27.113Z,27.63
2023-03-29T14:04:50.147Z,27.67
2023-03-29T14:06:13.937Z,24.33
2023-03-29T14:07:38.287Z,23.90
2023-03-29T14:08:59.846Z,24.23
2023-03-29T14:10:27.224Z,25.52
2023-03-29T14:11:48.024Z,22.30
2023-03-29T14:13:12.284Z,21.73
2023-03-29T14:14:32.806Z,26.77
2023-03-29T14:15:55.389Z,24.30
2023-03-29T14:17:19.425Z,24.10
2023-03-29T14:18:40.829Z,24.73
2023-03-29T14:20:06.462Z,25.60
2023-03-29T14:21:28.618Z,21.23
2023-03-29T14:22:49.765Z,20.30
2023-03-29T14:24:12.821Z,22.55
2023-03-29T14:25:37.264Z,19.80
2023-03-29T14:26:57.817Z,21.35
2023-03-29T14:28:22.787Z,22.88
2023-03-29T14:29:45.958Z,20.58
2023-03-29T14:31:16.227Z,19.80
2023-03-29T14:32:36.964Z,19.08
2023-03-29T14:33:59.209Z,19.95
2023-03-29T14:35:20.370Z,21.02
2023-03-29T14:36:44.604Z,15.93
2023-03-29T14:38:06.320Z,18.70
2023-03-29T14:39:26.791Z,17.25
2023-03-29T14:40:47.252Z,17.30
2023-03-29T14:42:14.808Z,18.20
2023-03-29T14:43:35.412Z,18.38
2023-03-29T14:44:58.550Z,19.17
2023-03-29T14:46:20.707Z,17.23
2023-03-29T14:47:41.949Z,19.42
2023-03-29T14:50:26.844Z,17.55
2023-03-29T14:51:49.293Z,20.65
2023-03-29T14:53:17.149Z,18.73
2023-03-29T14:54:38.073Z,16.60
2023-03-29T14:55:58.958Z,20.65
2023-03-29T14:57:19.646Z,21.08
2023-03-29T14:58:44.633Z,18.75
2023-03-29T15:00:17.194Z,20.85
2023-03-29T15:01:44.312Z,18.80
2023-03-29T15:03:13.296Z,23.65
2023-03-29T15:04:34.161Z,15.48
2023-03-29T15:05:57.469Z,16.33
2023-03-29T15:07:22.751Z,16.35
2023-03-29T15:08:54.339Z,16.08
2023-03-29T15:10:24.978Z,14.65
2023-03-29T15:11:51.729Z,18.15
2023-03-29T15:13:18.766Z,15.63
2023-03-29T15:14:39.619Z,15.63
2023-03-29T15:16:02.875Z,14.88
2023-03-29T15:17:39.505Z,21.33
2023-03-29T15:19:12.484Z,18.65
2023-03-29T15:20:34.399Z,16.52
2023-03-29T15:21:54.720Z,13.20
2023-03-29T15:23:24.427Z,15.73
2023-03-29T15:24:47.948Z,13.88
2023-03-29T15:26:13.058Z,13.98
2023-03-29T15:27:40.958Z,15.30
2023-03-29T15:29:02.955Z,15.82
2023-03-29T15:30:32.693Z,19.23
2023-03-29T15:31:55.471Z,13.50
2023-03-29T15:33:20.069Z,15.00
2023-03-29T15:34:41.275Z,17.83
2023-03-29T15:36:02.720Z,13.67
2023-03-29T15:37:25.764Z,13.80
2023-03-29T15:38:48.852Z,19.52
2023-03-29T15:40:16.181Z,16.10
2023-03-29T15:41:40.607Z,14.38
2023-03-29T15:43:01.245Z,13.10
2023-03-29T15:44:29.379Z,12.77
2023-03-29T15:45:51.210Z,15.75
2023-03-29T15:47:13.682Z,14.82
2023-03-29T15:48:41.124Z,15.80
2023-03-29T15:50:08.125Z,17.73
2023-03-29T15:51:33.061Z,18.83
2023-03-29T15:53:08.652Z,16.52
2023-03-29T15:54:38.695Z,14.43
2023-03-29T15:56:05.324Z,12.80
2023-03-29T15:57:26.832Z,12.85
2023-03-29T16:00:15.788Z,16.42
2023-03-29T16:01:37.567Z,16.33
2023-03-29T16:03:06.808Z,15.30
2023-03-29T16:04:35.853Z,19.38
2023-03-29T16:06:05.870Z,14.18
2023-03-29T16:07:31.778Z,16.85
2023-03-29T16:08:57.660Z,12.15
2023-03-29T16:10:19.862Z,15.77
2023-03-29T16:11:42.037Z,11.55
2023-03-29T16:14:24.290Z,14.80
2023-03-29T16:15:44.892Z,10.55
2023-03-29T16:17:06.007Z,12.43
2023-03-29T16:18:27.052Z,14.23
2023-03-29T16:19:47.756Z,10.40
2023-03-29T16:21:12.341Z,12.40
2023-03-29T16:22:33.169Z,11.32
2023-03-29T16:23:53.994Z,9.85
2023-03-29T16:25:16.423Z,14.00
2023-03-29T16:26:38.612Z,13.55
2023-03-29T16:27:59.390Z,10.50
2023-03-29T16:29:20.333Z,12.73
2023-03-29T16:30:40.776Z,9.88
2023-03-29T16:32:02.181Z,12.40
2023-03-29T16:33:24.444Z,15.52
2023-03-29T16:34:45.223Z,13.65
2023-03-29T16:36:07.359Z,15.95
2023-03-29T16:37:27.931Z,11.73
2023-03-29T16:38:48.683Z,13.23
2023-03-29T16:40:10.211Z,10.07
2023-03-29T16:41:31.227Z,12.55
2023-03-29T16:42:53.578Z,13.00
2023-03-29T16:44:16.145Z,9.20
2023-03-29T16:45:36.536Z,12.73
2023-03-29T16:46:57.539Z,10.77
2023-03-29T16:48:19.395Z,11.70
2023-03-29T16:49:40.773Z,10.00
2023-03-29T16:51:02.073Z,12.95
2023-03-29T16:52:22.802Z,8.27
2023-03-29T16:53:43.592Z,12.13
2023-03-29T16:55:05.166Z,11.13
2023-03-29T16:56:26.110Z,10.00
2023-03-29T16:57:47.335Z,16.47
2023-03-29T16:59:09.925Z,10.32
2023-03-29T17:00:30.949Z,14.48
2023-03-29T17:01:51.693Z,9.23
2023-03-29T17:03:12.444Z,16.00
2023-03-29T17:04:33.230Z,17.60
2023-03-29T17:05:54.594Z,10.27
2023-03-29T17:07:15.746Z,10.35
2023-03-29T17:08:36.951Z,10.18
2023-03-29T17:09:57.747Z,11.73
2023-03-29T17:11:18.586Z,10.10
2023-03-29T17:12:39.049Z,15.07
2023-03-29T17:13:59.518Z,11.60
2023-03-29T17:15:21.603Z,12.35
2023-03-29T17:16:42.429Z,16.38
2023-03-29T17:18:03.545Z,9.48
2023-03-29T17:19:24.235Z,13.13
2023-03-29T17:20:45.037Z,9.80
2023-03-29T17:22:06.611Z,10.00
2023-03-29T17:23:27.760Z,15.30
2023-03-29T17:24:48.874Z,10.85
2023-03-29T17:26:09.416Z,12.60
2023-03-29T17:27:30.225Z,10.20
2023-03-29T17:28:51.090Z,12.02
2023-03-29T17:30:12.194Z,9.53
2023-03-29T17:31:34.232Z,12.88
2023-03-29T17:32:55.122Z,11.23
2023-03-29T17:34:16.241Z,11.70
2023-03-29T17:35:36.908Z,11.77
2023-03-29T17:36:57.742Z,11.18
2023-03-29T17:38:18.511Z,10.60
2023-03-29T17:39:39.344Z,9.50
2023-03-29T17:41:00.212Z,13.30
2023-03-29T17:42:20.899Z,14.80
2023-03-29T17:43:41.693Z,11.15
2023-03-29T17:45:02.847Z,11.27
2023-03-29T17:46:23.867Z,11.20
2023-03-29T17:47:46.290Z,9.77
2023-03-29T17:49:07.396Z,17.02
2023-03-29T17:50:28.149Z,10.48
2023-03-29T17:51:48.737Z,13.00
2023-03-29T17:53:09.879Z,13.93
2023-03-29T17:54:30.580Z,13.95
2023-03-29T17:55:52.040Z,11.15
2023-03-29T17:57:12.507Z,12.88
2023-03-29T17:58:33.139Z,13.57
2023-03-29T17:59:53.965Z,11.23
2023-03-29T18:01:15.800Z,15.18
2023-03-29T18:03:58.347Z,11.68
2023-03-29T18:05:19.227Z,9.88
2023-03-29T18:06:39.759Z,11.88
2023-03-29T18:08:00.133Z,14.80
2023-03-29T18:09:20.951Z,15.98
2023-03-29T18:10:41.696Z,12.95
2023-03-29T18:12:02.353Z,12.23